sensor_id;sensor_type;location;lat;lon;timestamp;P1;durP1;ratioP1;P2;durP2;ratioP2
22937;SDS011;11634;42.734;23.298;2023-09-19T00:00:23;6.45;;;4.95;;
22937;SDS011;11634;42.734;23.298;2023-09-19T00:02:56;5.50;;;4.97;;
22937;SDS011;11634;42.734;23.298;2023-09-19T00:05:25;7.80;;;5.28;;
22937;SDS011;11634;42.734;23.298;2023-09-19T00:10:39;6.35;;;4.93;;
22937;SDS011;11634;42.734;23.298;2023-09-19T00:13:06;7.13;;;5.35;;
22937;SDS011;11634;42.734;23.298;2023-09-19T00:15:38;5.30;;;4.80;;
22937;SDS011;11634;42.734;23.298;2023-09-19T00:18:16;7.65;;;4.80;;
22937;SDS011;11634;42.734;23.298;2023-09-19T00:20:49;9.95;;;5.10;;
22937;SDS011;11634;42.734;23.298;2023-09-19T00:23:16;5.20;;;4.00;;
22937;SDS011;11634;42.734;23.298;2023-09-19T00:25:43;5.63;;;4.50;;
22937;SDS011;11634;42.734;23.298;2023-09-19T00:28:10;5.22;;;4.43;;
22937;SDS011;11634;42.734;23.298;2023-09-19T00:30:41;6.45;;;4.75;;
22937;SDS011;11634;42.734;23.298;2023-09-19T00:33:08;6.22;;;4.40;;
22937;SDS011;11634;42.734;23.298;2023-09-19T00:35:33;7.72;;;4.78;;
22937;SDS011;11634;42.734;23.298;2023-09-19T00:37:59;7.93;;;4.93;;
22937;SDS011;11634;42.734;23.298;2023-09-19T00:40:25;6.03;;;5.35;;
22937;SDS011;11634;42.734;23.298;2023-09-19T00:42:57;9.13;;;4.82;;
22937;SDS011;11634;42.734;23.298;2023-09-19T00:45:26;6.18;;;4.85;;
22937;SDS011;11634;42.734;23.298;2023-09-19T00:47:52;5.25;;;4.65;;
22937;SDS011;11634;42.734;23.298;2023-09-19T00:50:18;6.15;;;4.80;;
22937;SDS011;11634;42.734;23.298;2023-09-19T00:52:48;7.57;;;4.93;;
22937;SDS011;11634;42.734;23.298;2023-09-19T00:55:16;7.15;;;5.10;;
22937;SDS011;11634;42.734;23.298;2023-09-19T00:57:45;7.95;;;5.38;;
22937;SDS011;11634;42.734;23.298;2023-09-19T01:00:11;6.55;;;5.45;;
22937;SDS011;11634;42.734;23.298;2023-09-19T01:02:41;5.15;;;4.63;;
22937;SDS011;11634;42.734;23.298;2023-09-19T01:05:12;7.40;;;5.07;;
22937;SDS011;11634;42.734;23.298;2023-09-19T01:07:38;6.32;;;5.25;;
22937;SDS011;11634;42.734;23.298;2023-09-19T01:10:17;7.82;;;5.07;;
22937;SDS011;11634;42.734;23.298;2023-09-19T01:18:43;9.82;;;5.65;;
22937;SDS011;11634;42.734;23.298;2023-09-19T01:21:22;5.85;;;5.10;;
22937;SDS011;11634;42.734;23.298;2023-09-19T01:29:26;7.60;;;5.28;;
22937;SDS011;11634;42.734;23.298;2023-09-19T01:32:04;6.65;;;5.70;;
22937;SDS011;11634;42.734;23.298;2023-09-19T01:37:19;6.95;;;6.22;;
22937;SDS011;11634;42.734;23.298;2023-09-19T01:39:59;6.88;;;6.18;;
22937;SDS011;11634;42.734;23.298;2023-09-19T01:45:28;8.30;;;5.63;;
22937;SDS011;11634;42.734;23.298;2023-09-19T01:50:43;7.40;;;6.35;;
22937;SDS011;11634;42.734;23.298;2023-09-19T01:53:27;6.78;;;5.97;;
22937;SDS011;11634;42.734;23.298;2023-09-19T01:55:57;9.00;;;6.32;;
22937;SDS011;11634;42.734;23.298;2023-09-19T02:01:22;7.38;;;6.55;;
22937;SDS011;11634;42.734;23.298;2023-09-19T02:03:51;8.73;;;6.55;;
22937;SDS011;11634;42.734;23.298;2023-09-19T02:06:18;7.78;;;6.43;;
22937;SDS011;11634;42.734;23.298;2023-09-19T02:08:44;9.45;;;6.80;;
22937;SDS011;11634;42.734;23.298;2023-09-19T02:11:11;7.13;;;6.18;;
22937;SDS011;11634;42.734;23.298;2023-09-19T02:13:39;7.22;;;5.47;;
22937;SDS011;11634;42.734;23.298;2023-09-19T02:16:06;6.88;;;6.20;;
22937;SDS011;11634;42.734;23.298;2023-09-19T02:18:32;8.15;;;5.88;;
22937;SDS011;11634;42.734;23.298;2023-09-19T02:21:00;7.07;;;5.95;;
22937;SDS011;11634;42.734;23.298;2023-09-19T02:23:27;7.32;;;5.80;;
22937;SDS011;11634;42.734;23.298;2023-09-19T02:25:53;7.18;;;5.20;;
22937;SDS011;11634;42.734;23.298;2023-09-19T02:28:20;10.95;;;5.95;;
22937;SDS011;11634;42.734;23.298;2023-09-19T02:30:47;10.27;;;6.07;;
22937;SDS011;11634;42.734;23.298;2023-09-19T02:33:16;8.48;;;5.65;;
22937;SDS011;11634;42.734;23.298;2023-09-19T02:35:45;10.32;;;6.38;;
22937;SDS011;11634;42.734;23.298;2023-09-19T02:38:11;6.63;;;6.03;;
22937;SDS011;11634;42.734;23.298;2023-09-19T02:40:39;7.28;;;5.85;;
22937;SDS011;11634;42.734;23.298;2023-09-19T02:43:06;6.95;;;6.25;;
22937;SDS011;11634;42.734;23.298;2023-09-19T02:45:33;8.10;;;6.50;;
22937;SDS011;11634;42.734;23.298;2023-09-19T02:48:00;8.75;;;6.65;;
22937;SDS011;11634;42.734;23.298;2023-09-19T02:50:28;6.72;;;5.90;;
22937;SDS011;11634;42.734;23.298;2023-09-19T02:52:54;10.20;;;7.18;;
22937;SDS011;11634;42.734;23.298;2023-09-19T02:55:20;9.82;;;6.22;;
22937;SDS011;11634;42.734;23.298;2023-09-19T02:57:51;9.35;;;6.32;;
22937;SDS011;11634;42.734;23.298;2023-09-19T03:00:20;8.80;;;6.32;;
22937;SDS011;11634;42.734;23.298;2023-09-19T03:02:55;6.85;;;6.15;;
22937;SDS011;11634;42.734;23.298;2023-09-19T03:05:22;9.38;;;7.60;;
22937;SDS011;11634;42.734;23.298;2023-09-19T03:07:49;10.63;;;7.57;;
22937;SDS011;11634;42.734;23.298;2023-09-19T03:10:20;8.45;;;7.07;;
22937;SDS011;11634;42.734;23.298;2023-09-19T03:12:46;8.80;;;7.43;;
22937;SDS011;11634;42.734;23.298;2023-09-19T03:15:13;7.70;;;7.00;;
22937;SDS011;11634;42.734;23.298;2023-09-19T03:17:48;10.93;;;7.15;;
22937;SDS011;11634;42.734;23.298;2023-09-19T03:20:37;8.60;;;6.80;;
22937;SDS011;11634;42.734;23.298;2023-09-19T03:23:04;7.95;;;7.15;;
22937;SDS011;11634;42.734;23.298;2023-09-19T03:25:33;9.05;;;7.53;;
22937;SDS011;11634;42.734;23.298;2023-09-19T03:28:01;11.43;;;8.15;;
22937;SDS011;11634;42.734;23.298;2023-09-19T03:30:31;12.05;;;8.02;;
22937;SDS011;11634;42.734;23.298;2023-09-19T03:33:00;8.82;;;7.85;;
22937;SDS011;11634;42.734;23.298;2023-09-19T03:35:26;10.80;;;8.30;;
22937;SDS011;11634;42.734;23.298;2023-09-19T03:37:51;9.75;;;8.00;;
22937;SDS011;11634;42.734;23.298;2023-09-19T03:40:27;13.35;;;8.02;;
22937;SDS011;11634;42.734;23.298;2023-09-19T03:42:53;9.80;;;8.45;;
22937;SDS011;11634;42.734;23.298;2023-09-19T03:45:20;9.10;;;8.10;;
22937;SDS011;11634;42.734;23.298;2023-09-19T03:47:49;9.40;;;8.32;;
22937;SDS011;11634;42.734;23.298;2023-09-19T03:50:18;9.90;;;7.90;;
22937;SDS011;11634;42.734;23.298;2023-09-19T03:52:44;8.70;;;7.38;;
22937;SDS011;11634;42.734;23.298;2023-09-19T03:55:10;9.02;;;7.40;;
22937;SDS011;11634;42.734;23.298;2023-09-19T03:57:37;11.07;;;7.93;;
22937;SDS011;11634;42.734;23.298;2023-09-19T04:00:03;8.07;;;7.28;;
22937;SDS011;11634;42.734;23.298;2023-09-19T04:02:41;12.82;;;8.20;;
22937;SDS011;11634;42.734;23.298;2023-09-19T04:05:09;11.85;;;8.45;;
22937;SDS011;11634;42.734;23.298;2023-09-19T04:07:36;9.55;;;7.97;;
22937;SDS011;11634;42.734;23.298;2023-09-19T04:10:01;17.35;;;8.27;;
22937;SDS011;11634;42.734;23.298;2023-09-19T04:12:28;10.90;;;8.95;;
22937;SDS011;11634;42.734;23.298;2023-09-19T04:14:56;9.95;;;8.55;;
22937;SDS011;11634;42.734;23.298;2023-09-19T04:17:22;9.15;;;8.20;;
22937;SDS011;11634;42.734;23.298;2023-09-19T04:19:49;9.27;;;8.38;;
22937;SDS011;11634;42.734;23.298;2023-09-19T04:22:15;15.30;;;9.55;;
22937;SDS011;11634;42.734;23.298;2023-09-19T04:24:40;10.35;;;9.00;;
22937;SDS011;11634;42.734;23.298;2023-09-19T04:27:06;10.68;;;9.30;;
22937;SDS011;11634;42.734;23.298;2023-09-19T04:29:32;12.88;;;9.48;;
22937;SDS011;11634;42.734;23.298;2023-09-19T04:31:58;11.25;;;9.40;;
22937;SDS011;11634;42.734;23.298;2023-09-19T04:34:24;11.95;;;9.38;;
22937;SDS011;11634;42.734;23.298;2023-09-19T04:36:50;19.60;;;9.75;;
22937;SDS011;11634;42.734;23.298;2023-09-19T04:39:16;13.98;;;9.52;;
22937;SDS011;11634;42.734;23.298;2023-09-19T04:41:43;15.10;;;8.75;;
22937;SDS011;11634;42.734;23.298;2023-09-19T04:44:10;13.82;;;8.70;;
22937;SDS011;11634;42.734;23.298;2023-09-19T04:46:35;16.73;;;9.40;;
22937;SDS011;11634;42.734;23.298;2023-09-19T04:49:01;16.50;;;8.45;;
22937;SDS011;11634;42.734;23.298;2023-09-19T04:51:30;13.88;;;9.32;;
22937;SDS011;11634;42.734;23.298;2023-09-19T04:53:59;11.05;;;8.90;;
22937;SDS011;11634;42.734;23.298;2023-09-19T04:56:25;16.42;;;9.20;;
22937;SDS011;11634;42.734;23.298;2023-09-19T04:58:51;11.48;;;8.20;;
22937;SDS011;11634;42.734;23.298;2023-09-19T05:01:25;10.40;;;8.15;;
22937;SDS011;11634;42.734;23.298;2023-09-19T05:03:52;10.32;;;8.25;;
22937;SDS011;11634;42.734;23.298;2023-09-19T05:06:20;9.10;;;7.50;;
22937;SDS011;11634;42.734;23.298;2023-09-19T05:08:47;10.68;;;7.40;;
22937;SDS011;11634;42.734;23.298;2023-09-19T05:11:19;9.27;;;7.47;;
22937;SDS011;11634;42.734;23.298;2023-09-19T05:13:47;10.82;;;7.63;;
22937;SDS011;11634;42.734;23.298;2023-09-19T05:16:12;11.20;;;7.63;;
22937;SDS011;11634;42.734;23.298;2023-09-19T05:18:38;13.07;;;7.32;;
22937;SDS011;11634;42.734;23.298;2023-09-19T05:21:04;14.40;;;6.93;;
22937;SDS011;11634;42.734;23.298;2023-09-19T05:23:29;12.75;;;6.95;;
22937;SDS011;11634;42.734;23.298;2023-09-19T05:25:56;14.73;;;8.63;;
22937;SDS011;11634;42.734;23.298;2023-09-19T05:28:25;13.23;;;7.78;;
22937;SDS011;11634;42.734;23.298;2023-09-19T05:30:52;12.45;;;7.45;;
22937;SDS011;11634;42.734;23.298;2023-09-19T05:33:18;9.98;;;7.32;;
22937;SDS011;11634;42.734;23.298;2023-09-19T05:35:45;12.50;;;7.75;;
22937;SDS011;11634;42.734;23.298;2023-09-19T05:38:12;9.43;;;6.80;;
22937;SDS011;11634;42.734;23.298;2023-09-19T05:40:39;9.00;;;6.28;;
22937;SDS011;11634;42.734;23.298;2023-09-19T05:43:08;8.40;;;6.00;;
22937;SDS011;11634;42.734;23.298;2023-09-19T05:45:34;8.00;;;6.00;;
22937;SDS011;11634;42.734;23.298;2023-09-19T05:48:12;9.35;;;5.28;;
22937;SDS011;11634;42.734;23.298;2023-09-19T05:50:41;5.75;;;4.93;;
22937;SDS011;11634;42.734;23.298;2023-09-19T05:53:07;6.13;;;4.50;;
22937;SDS011;11634;42.734;23.298;2023-09-19T05:55:33;10.85;;;5.65;;
22937;SDS011;11634;42.734;23.298;2023-09-19T05:57:59;6.13;;;5.00;;
22937;SDS011;11634;42.734;23.298;2023-09-19T06:00:25;6.72;;;5.32;;
22937;SDS011;11634;42.734;23.298;2023-09-19T06:02:53;5.55;;;4.90;;
22937;SDS011;11634;42.734;23.298;2023-09-19T06:05:19;9.50;;;5.30;;
22937;SDS011;11634;42.734;23.298;2023-09-19T06:07:45;8.10;;;5.07;;
22937;SDS011;11634;42.734;23.298;2023-09-19T06:10:17;8.05;;;5.45;;
22937;SDS011;11634;42.734;23.298;2023-09-19T06:12:43;10.68;;;4.95;;
22937;SDS011;11634;42.734;23.298;2023-09-19T06:15:09;11.75;;;5.95;;
22937;SDS011;11634;42.734;23.298;2023-09-19T06:17:46;5.57;;;4.72;;
22937;SDS011;11634;42.734;23.298;2023-09-19T06:20:19;8.85;;;5.45;;
22937;SDS011;11634;42.734;23.298;2023-09-19T06:22:45;7.38;;;5.40;;
22937;SDS011;11634;42.734;23.298;2023-09-19T06:25:11;6.00;;;5.35;;
22937;SDS011;11634;42.734;23.298;2023-09-19T06:27:40;7.80;;;4.60;;
22937;SDS011;11634;42.734;23.298;2023-09-19T06:30:07;5.97;;;5.32;;
22937;SDS011;11634;42.734;23.298;2023-09-19T06:32:34;9.20;;;5.85;;
22937;SDS011;11634;42.734;23.298;2023-09-19T06:35:14;9.05;;;6.38;;
22937;SDS011;11634;42.734;23.298;2023-09-19T06:37:41;9.77;;;5.97;;
22937;SDS011;11634;42.734;23.298;2023-09-19T06:40:11;11.50;;;5.32;;
22937;SDS011;11634;42.734;23.298;2023-09-19T06:42:43;7.22;;;5.13;;
22937;SDS011;11634;42.734;23.298;2023-09-19T06:45:10;8.48;;;5.28;;
22937;SDS011;11634;42.734;23.298;2023-09-19T06:47:44;7.03;;;5.57;;
22937;SDS011;11634;42.734;23.298;2023-09-19T06:50:23;9.40;;;5.32;;
22937;SDS011;11634;42.734;23.298;2023-09-19T06:52:49;5.38;;;4.75;;
22937;SDS011;11634;42.734;23.298;2023-09-19T06:55:22;5.50;;;4.97;;
22937;SDS011;11634;42.734;23.298;2023-09-19T06:57:56;7.50;;;4.88;;
22937;SDS011;11634;42.734;23.298;2023-09-19T07:00:23;10.90;;;4.80;;
22937;SDS011;11634;42.734;23.298;2023-09-19T07:03:02;9.48;;;5.10;;
22937;SDS011;11634;42.734;23.298;2023-09-19T07:05:34;4.85;;;4.20;;
22937;SDS011;11634;42.734;23.298;2023-09-19T07:08:04;5.85;;;5.03;;
22937;SDS011;11634;42.734;23.298;2023-09-19T07:10:34;9.32;;;6.53;;
22937;SDS011;11634;42.734;23.298;2023-09-19T07:13:03;7.70;;;5.47;;
22937;SDS011;11634;42.734;23.298;2023-09-19T07:15:43;8.05;;;5.28;;
22937;SDS011;11634;42.734;23.298;2023-09-19T07:18:23;12.82;;;6.22;;
22937;SDS011;11634;42.734;23.298;2023-09-19T07:20:48;8.38;;;6.10;;
22937;SDS011;11634;42.734;23.298;2023-09-19T07:23:23;9.43;;;5.28;;
22937;SDS011;11634;42.734;23.298;2023-09-19T07:25:51;6.03;;;4.20;;
22937;SDS011;11634;42.734;23.298;2023-09-19T07:28:26;6.80;;;4.80;;
22937;SDS011;11634;42.734;23.298;2023-09-19T07:30:53;6.50;;;4.53;;
22937;SDS011;11634;42.734;23.298;2023-09-19T07:33:19;6.07;;;4.28;;
22937;SDS011;11634;42.734;23.298;2023-09-19T07:35:46;6.63;;;5.07;;
22937;SDS011;11634;42.734;23.298;2023-09-19T07:38:12;7.47;;;4.57;;
22937;SDS011;11634;42.734;23.298;2023-09-19T07:40:38;5.13;;;4.53;;
22937;SDS011;11634;42.734;23.298;2023-09-19T07:43:05;5.85;;;5.25;;
22937;SDS011;11634;42.734;23.298;2023-09-19T07:45:32;6.82;;;4.78;;
22937;SDS011;11634;42.734;23.298;2023-09-19T07:47:58;6.68;;;4.57;;
22937;SDS011;11634;42.734;23.298;2023-09-19T07:50:29;5.72;;;4.80;;
22937;SDS011;11634;42.734;23.298;2023-09-19T07:52:55;8.73;;;4.95;;
22937;SDS011;11634;42.734;23.298;2023-09-19T07:55:22;9.73;;;4.75;;
22937;SDS011;11634;42.734;23.298;2023-09-19T07:57:54;5.25;;;4.70;;
22937;SDS011;11634;42.734;23.298;2023-09-19T08:00:23;9.82;;;5.32;;
22937;SDS011;11634;42.734;23.298;2023-09-19T08:02:49;5.57;;;4.53;;
22937;SDS011;11634;42.734;23.298;2023-09-19T08:05:14;7.10;;;4.95;;
22937;SDS011;11634;42.734;23.298;2023-09-19T08:07:42;6.75;;;5.07;;
22937;SDS011;11634;42.734;23.298;2023-09-19T08:10:09;6.15;;;5.10;;
22937;SDS011;11634;42.734;23.298;2023-09-19T08:12:44;9.52;;;5.00;;
22937;SDS011;11634;42.734;23.298;2023-09-19T08:15:15;6.70;;;4.85;;
22937;SDS011;11634;42.734;23.298;2023-09-19T08:17:47;8.07;;;5.07;;
22937;SDS011;11634;42.734;23.298;2023-09-19T08:20:14;10.23;;;4.88;;
22937;SDS011;11634;42.734;23.298;2023-09-19T08:22:47;5.95;;;4.07;;
22937;SDS011;11634;42.734;23.298;2023-09-19T08:25:22;9.15;;;4.85;;
22937;SDS011;11634;42.734;23.298;2023-09-19T08:27:50;7.80;;;4.75;;
22937;SDS011;11634;42.734;23.298;2023-09-19T08:30:19;8.70;;;5.30;;
22937;SDS011;11634;42.734;23.298;2023-09-19T08:32:51;6.65;;;5.07;;
22937;SDS011;11634;42.734;23.298;2023-09-19T08:35:23;6.30;;;4.38;;
22937;SDS011;11634;42.734;23.298;2023-09-19T08:37:49;6.82;;;4.57;;
22937;SDS011;11634;42.734;23.298;2023-09-19T08:40:16;9.75;;;5.63;;
22937;SDS011;11634;42.734;23.298;2023-09-19T08:42:48;10.73;;;5.10;;
22937;SDS011;11634;42.734;23.298;2023-09-19T08:45:21;8.55;;;4.95;;
22937;SDS011;11634;42.734;23.298;2023-09-19T08:50:33;6.47;;;4.05;;
22937;SDS011;11634;42.734;23.298;2023-09-19T08:53:10;6.80;;;4.45;;
22937;SDS011;11634;42.734;23.298;2023-09-19T08:55:39;6.20;;;4.68;;
22937;SDS011;11634;42.734;23.298;2023-09-19T08:58:08;5.43;;;4.47;;
22937;SDS011;11634;42.734;23.298;2023-09-19T09:00:38;5.75;;;4.80;;
22937;SDS011;11634;42.734;23.298;2023-09-19T09:03:08;4.85;;;4.22;;
22937;SDS011;11634;42.734;23.298;2023-09-19T09:05:36;5.72;;;4.45;;
22937;SDS011;11634;42.734;23.298;2023-09-19T09:08:05;5.95;;;4.55;;
22937;SDS011;11634;42.734;23.298;2023-09-19T09:10:31;7.10;;;5.10;;
22937;SDS011;11634;42.734;23.298;2023-09-19T09:12:58;7.43;;;4.68;;
22937;SDS011;11634;42.734;23.298;2023-09-19T09:15:24;11.45;;;4.72;;
22937;SDS011;11634;42.734;23.298;2023-09-19T09:17:50;11.07;;;5.45;;
22937;SDS011;11634;42.734;23.298;2023-09-19T09:20:18;6.65;;;4.50;;
22937;SDS011;11634;42.734;23.298;2023-09-19T09:22:50;10.30;;;4.82;;
22937;SDS011;11634;42.734;23.298;2023-09-19T09:25:46;6.50;;;4.95;;
22937;SDS011;11634;42.734;23.298;2023-09-19T09:28:19;6.57;;;4.40;;
22937;SDS011;11634;42.734;23.298;2023-09-19T09:30:49;6.32;;;4.10;;
22937;SDS011;11634;42.734;23.298;2023-09-19T09:33:15;11.38;;;4.80;;
22937;SDS011;11634;42.734;23.298;2023-09-19T09:35:48;5.90;;;4.68;;
22937;SDS011;11634;42.734;23.298;2023-09-19T09:38:49;6.30;;;4.82;;
22937;SDS011;11634;42.734;23.298;2023-09-19T09:41:15;5.05;;;4.55;;
22937;SDS011;11634;42.734;23.298;2023-09-19T09:43:52;8.90;;;4.55;;
22937;SDS011;11634;42.734;23.298;2023-09-19T09:46:20;6.95;;;4.63;;
22937;SDS011;11634;42.734;23.298;2023-09-19T09:49:02;4.63;;;4.10;;
22937;SDS011;11634;42.734;23.298;2023-09-19T09:54:41;5.47;;;4.07;;
22937;SDS011;11634;42.734;23.298;2023-09-19T09:57:24;6.75;;;4.60;;
22937;SDS011;11634;42.734;23.298;2023-09-19T10:02:27;5.75;;;4.30;;
22937;SDS011;11634;42.734;23.298;2023-09-19T10:04:55;7.43;;;3.90;;
22937;SDS011;11634;42.734;23.298;2023-09-19T10:07:33;5.10;;;4.25;;
22937;SDS011;11634;42.734;23.298;2023-09-19T10:10:05;10.35;;;4.78;;
22937;SDS011;11634;42.734;23.298;2023-09-19T10:12:42;8.95;;;4.50;;
22937;SDS011;11634;42.734;23.298;2023-09-19T10:15:11;6.35;;;4.38;;
22937;SDS011;11634;42.734;23.298;2023-09-19T10:17:42;6.30;;;4.70;;
22937;SDS011;11634;42.734;23.298;2023-09-19T10:20:10;7.28;;;4.40;;
22937;SDS011;11634;42.734;23.298;2023-09-19T10:22:52;5.47;;;4.57;;
22937;SDS011;11634;42.734;23.298;2023-09-19T10:25:25;6.60;;;5.07;;
22937;SDS011;11634;42.734;23.298;2023-09-19T10:27:54;5.88;;;4.28;;
22937;SDS011;11634;42.734;23.298;2023-09-19T10:30:25;5.80;;;4.88;;
22937;SDS011;11634;42.734;23.298;2023-09-19T10:32:57;11.32;;;4.72;;
22937;SDS011;11634;42.734;23.298;2023-09-19T10:35:26;13.20;;;4.50;;
22937;SDS011;11634;42.734;23.298;2023-09-19T10:37:54;13.32;;;5.35;;
22937;SDS011;11634;42.734;23.298;2023-09-19T10:40:22;9.63;;;4.68;;
22937;SDS011;11634;42.734;23.298;2023-09-19T10:43:00;9.75;;;5.05;;
22937;SDS011;11634;42.734;23.298;2023-09-19T10:45:33;13.52;;;5.25;;
22937;SDS011;11634;42.734;23.298;2023-09-19T10:48:01;8.30;;;5.20;;
22937;SDS011;11634;42.734;23.298;2023-09-19T10:50:50;9.68;;;5.68;;
22937;SDS011;11634;42.734;23.298;2023-09-19T10:53:16;7.45;;;5.22;;
22937;SDS011;11634;42.734;23.298;2023-09-19T10:55:50;12.50;;;5.35;;
22937;SDS011;11634;42.734;23.298;2023-09-19T10:58:29;8.75;;;5.18;;
22937;SDS011;11634;42.734;23.298;2023-09-19T11:01:00;7.10;;;4.30;;
22937;SDS011;11634;42.734;23.298;2023-09-19T11:03:37;6.45;;;4.85;;
22937;SDS011;11634;42.734;23.298;2023-09-19T11:06:09;11.85;;;4.85;;
22937;SDS011;11634;42.734;23.298;2023-09-19T11:14:13;5.50;;;4.53;;
22937;SDS011;11634;42.734;23.298;2023-09-19T11:16:40;7.75;;;4.38;;
22937;SDS011;11634;42.734;23.298;2023-09-19T11:30:43;6.38;;;4.80;;
22937;SDS011;11634;42.734;23.298;2023-09-19T11:33:28;6.13;;;4.78;;
22937;SDS011;11634;42.734;23.298;2023-09-19T11:36:05;6.78;;;4.30;;
22937;SDS011;11634;42.734;23.298;2023-09-19T11:43:51;7.35;;;4.80;;
22937;SDS011;11634;42.734;23.298;2023-09-19T11:46:20;8.85;;;4.88;;
22937;SDS011;11634;42.734;23.298;2023-09-19T11:48:48;5.25;;;4.70;;
22937;SDS011;11634;42.734;23.298;2023-09-19T11:51:16;6.22;;;4.45;;
22937;SDS011;11634;42.734;23.298;2023-09-19T11:53:52;7.78;;;4.65;;
22937;SDS011;11634;42.734;23.298;2023-09-19T11:56:25;11.30;;;5.00;;
22937;SDS011;11634;42.734;23.298;2023-09-19T11:58:57;6.53;;;4.95;;
22937;SDS011;11634;42.734;23.298;2023-09-19T12:01:32;7.05;;;4.60;;
22937;SDS011;11634;42.734;23.298;2023-09-19T12:04:01;7.90;;;4.93;;
22937;SDS011;11634;42.734;23.298;2023-09-19T12:06:30;6.68;;;4.90;;
22937;SDS011;11634;42.734;23.298;2023-09-19T12:08:57;8.00;;;5.20;;
22937;SDS011;11634;42.734;23.298;2023-09-19T12:11:27;8.48;;;5.07;;
22937;SDS011;11634;42.734;23.298;2023-09-19T12:14:01;6.72;;;5.22;;
22937;SDS011;11634;42.734;23.298;2023-09-19T12:16:30;6.63;;;5.10;;
22937;SDS011;11634;42.734;23.298;2023-09-19T12:18:56;6.53;;;5.18;;
22937;SDS011;11634;42.734;23.298;2023-09-19T12:21:27;9.10;;;5.45;;
22937;SDS011;11634;42.734;23.298;2023-09-19T12:26:59;5.47;;;4.93;;
22937;SDS011;11634;42.734;23.298;2023-09-19T12:29:26;7.68;;;4.70;;
22937;SDS011;11634;42.734;23.298;2023-09-19T12:34:32;10.05;;;5.07;;
22937;SDS011;11634;42.734;23.298;2023-09-19T12:40:03;7.57;;;5.20;;
22937;SDS011;11634;42.734;23.298;2023-09-19T12:42:43;9.95;;;5.25;;
22937;SDS011;11634;42.734;23.298;2023-09-19T12:45:10;6.55;;;5.38;;
22937;SDS011;11634;42.734;23.298;2023-09-19T12:47:38;5.10;;;4.60;;
22937;SDS011;11634;42.734;23.298;2023-09-19T12:50:06;8.02;;;5.57;;
22937;SDS011;11634;42.734;23.298;2023-09-19T12:52:36;11.52;;;4.95;;
22937;SDS011;11634;42.734;23.298;2023-09-19T12:55:02;6.53;;;5.20;;
22937;SDS011;11634;42.734;23.298;2023-09-19T12:57:30;12.07;;;5.45;;
22937;SDS011;11634;42.734;23.298;2023-09-19T13:00:02;7.95;;;4.93;;
22937;SDS011;11634;42.734;23.298;2023-09-19T13:02:36;7.60;;;5.18;;
22937;SDS011;11634;42.734;23.298;2023-09-19T13:05:03;11.98;;;5.68;;
22937;SDS011;11634;42.734;23.298;2023-09-19T13:07:44;9.60;;;5.70;;
22937;SDS011;11634;42.734;23.298;2023-09-19T13:10:14;7.35;;;5.03;;
22937;SDS011;11634;42.734;23.298;2023-09-19T13:12:44;7.13;;;5.45;;
22937;SDS011;11634;42.734;23.298;2023-09-19T13:15:12;7.93;;;5.00;;
22937;SDS011;11634;42.734;23.298;2023-09-19T13:17:46;9.18;;;5.18;;
22937;SDS011;11634;42.734;23.298;2023-09-19T13:20:26;12.05;;;4.85;;
22937;SDS011;11634;42.734;23.298;2023-09-19T13:22:57;11.35;;;5.68;;
22937;SDS011;11634;42.734;23.298;2023-09-19T13:25:35;12.93;;;6.43;;
22937;SDS011;11634;42.734;23.298;2023-09-19T13:28:00;6.82;;;5.20;;
22937;SDS011;11634;42.734;23.298;2023-09-19T13:30:29;7.25;;;4.95;;
22937;SDS011;11634;42.734;23.298;2023-09-19T13:33:09;5.63;;;5.00;;
22937;SDS011;11634;42.734;23.298;2023-09-19T13:35:36;9.68;;;5.95;;
22937;SDS011;11634;42.734;23.298;2023-09-19T13:38:05;6.63;;;5.22;;
22937;SDS011;11634;42.734;23.298;2023-09-19T13:40:34;6.35;;;5.30;;
22937;SDS011;11634;42.734;23.298;2023-09-19T13:43:00;8.73;;;5.20;;
22937;SDS011;11634;42.734;23.298;2023-09-19T13:45:26;10.23;;;5.82;;
22937;SDS011;11634;42.734;23.298;2023-09-19T13:47:55;10.02;;;5.70;;
22937;SDS011;11634;42.734;23.298;2023-09-19T13:50:24;6.53;;;5.45;;
22937;SDS011;11634;42.734;23.298;2023-09-19T13:52:50;8.68;;;5.90;;
22937;SDS011;11634;42.734;23.298;2023-09-19T13:55:17;5.00;;;4.50;;
22937;SDS011;11634;42.734;23.298;2023-09-19T13:57:46;10.18;;;5.55;;
22937;SDS011;11634;42.734;23.298;2023-09-19T14:00:15;11.10;;;6.32;;
22937;SDS011;11634;42.734;23.298;2023-09-19T14:02:41;7.05;;;5.13;;
22937;SDS011;11634;42.734;23.298;2023-09-19T14:05:10;9.52;;;5.15;;
22937;SDS011;11634;42.734;23.298;2023-09-19T14:07:42;7.13;;;5.20;;
22937;SDS011;11634;42.734;23.298;2023-09-19T14:10:11;8.25;;;5.28;;
22937;SDS011;11634;42.734;23.298;2023-09-19T14:12:37;10.95;;;5.80;;
22937;SDS011;11634;42.734;23.298;2023-09-19T14:15:06;9.45;;;5.32;;
22937;SDS011;11634;42.734;23.298;2023-09-19T14:17:33;7.03;;;5.22;;
22937;SDS011;11634;42.734;23.298;2023-09-19T14:20:01;11.82;;;6.10;;
22937;SDS011;11634;42.734;23.298;2023-09-19T14:22:27;6.97;;;5.45;;
22937;SDS011;11634;42.734;23.298;2023-09-19T14:24:53;9.40;;;5.28;;
22937;SDS011;11634;42.734;23.298;2023-09-19T14:27:19;8.02;;;5.30;;
22937;SDS011;11634;42.734;23.298;2023-09-19T14:29:45;14.85;;;5.22;;
22937;SDS011;11634;42.734;23.298;2023-09-19T14:32:10;7.07;;;5.40;;
22937;SDS011;11634;42.734;23.298;2023-09-19T14:34:36;9.05;;;5.20;;
22937;SDS011;11634;42.734;23.298;2023-09-19T14:37:07;10.13;;;5.38;;
22937;SDS011;11634;42.734;23.298;2023-09-19T14:39:33;7.18;;;5.22;;
22937;SDS011;11634;42.734;23.298;2023-09-19T14:41:59;9.43;;;5.70;;
22937;SDS011;11634;42.734;23.298;2023-09-19T14:44:25;6.35;;;5.13;;
22937;SDS011;11634;42.734;23.298;2023-09-19T14:46:50;8.20;;;5.10;;
22937;SDS011;11634;42.734;23.298;2023-09-19T14:49:20;6.95;;;5.13;;
22937;SDS011;11634;42.734;23.298;2023-09-19T14:51:45;6.95;;;5.28;;
22937;SDS011;11634;42.734;23.298;2023-09-19T14:54:12;6.68;;;5.30;;
22937;SDS011;11634;42.734;23.298;2023-09-19T14:56:38;6.65;;;5.78;;
22937;SDS011;11634;42.734;23.298;2023-09-19T14:59:04;5.72;;;5.20;;
22937;SDS011;11634;42.734;23.298;2023-09-19T15:01:29;6.43;;;5.20;;
22937;SDS011;11634;42.734;23.298;2023-09-19T15:03:58;6.40;;;5.80;;
22937;SDS011;11634;42.734;23.298;2023-09-19T15:06:31;8.95;;;5.80;;
22937;SDS011;11634;42.734;23.298;2023-09-19T15:08:57;8.20;;;5.72;;
22937;SDS011;11634;42.734;23.298;2023-09-19T15:11:26;7.90;;;5.47;;
22937;SDS011;11634;42.734;23.298;2023-09-19T15:13:55;9.10;;;5.65;;
22937;SDS011;11634;42.734;23.298;2023-09-19T15:16:21;8.48;;;5.75;;
22937;SDS011;11634;42.734;23.298;2023-09-19T15:18:50;8.10;;;5.28;;
22937;SDS011;11634;42.734;23.298;2023-09-19T15:21:17;7.05;;;5.13;;
22937;SDS011;11634;42.734;23.298;2023-09-19T15:23:46;8.82;;;5.97;;
22937;SDS011;11634;42.734;23.298;2023-09-19T15:26:12;9.13;;;6.30;;
22937;SDS011;11634;42.734;23.298;2023-09-19T15:28:39;12.52;;;5.80;;
22937;SDS011;11634;42.734;23.298;2023-09-19T15:31:11;9.60;;;5.65;;
22937;SDS011;11634;42.734;23.298;2023-09-19T15:33:40;6.57;;;5.50;;
22937;SDS011;11634;42.734;23.298;2023-09-19T15:36:06;6.68;;;5.50;;
22937;SDS011;11634;42.734;23.298;2023-09-19T15:41:35;9.13;;;5.32;;
22937;SDS011;11634;42.734;23.298;2023-09-19T15:44:02;9.90;;;5.15;;
22937;SDS011;11634;42.734;23.298;2023-09-19T15:46:29;9.30;;;5.65;;
22937;SDS011;11634;42.734;23.298;2023-09-19T15:49:03;6.97;;;5.57;;
22937;SDS011;11634;42.734;23.298;2023-09-19T15:51:30;7.22;;;6.43;;